Terminal Aerodrome Forecast
Issued by NWS

Home | Current Version | Previous Version | Graphics & Text | Print | Product List | Glossary On
Versions: 1 2 3 4 5 6 7 8 9 10 11 12 13
000
FTUS43 KBIS 231734
TAFJMS
TAF
KJMS 231734Z 2318/2418 04011KT P6SM FEW060 SCT200
     FM240500 01013KT P6SM VCSH BKN070 OVC080
     FM240900 36013KT 6SM -RA BKN050 OVC060
     FM241100 36013KT P6SM VCSH OVC045
     FM241200 01012KT P6SM BKN035 OVC060
     FM241500 02012KT P6SM FEW050 SCT250=

USA.gov is the U.S. government's official web portal to all federal, state and local government web resources and services.